createdAt,value
2022-10-26T00:00:26.091Z,129.31
2022-10-26T00:15:26.099Z,99.92
2022-10-26T00:30:26.013Z,90.00
2022-10-26T00:45:26.026Z,90.00
2022-10-26T01:00:26.027Z,103.92
2022-10-26T01:15:26.143Z,107.11
2022-10-26T01:30:26.197Z,111.96
2022-10-26T01:45:26.211Z,133.51
2022-10-26T02:00:26.175Z,110.57
2022-10-26T02:15:26.158Z,120.92
2022-10-26T02:30:26.254Z,132.29
2022-10-26T02:45:26.191Z,130.36
2022-10-26T03:00:26.281Z,87.35
2022-10-26T03:15:26.288Z,101.70
2022-10-26T03:30:26.254Z,89.55
2022-10-26T03:45:26.270Z,90.00
2022-10-26T04:00:26.346Z,90.00
2022-10-26T04:15:26.149Z,123.74
2022-10-26T04:30:26.247Z,140.78
2022-10-26T04:45:26.345Z,143.50
2022-10-26T05:00:26.411Z,146.46
2022-10-26T05:15:26.305Z,148.25
2022-10-26T05:30:26.292Z,151.82
2022-10-26T05:45:26.278Z,163.13
2022-10-26T06:00:26.210Z,162.52
2022-10-26T06:15:26.304Z,152.97
2022-10-26T06:30:26.307Z,157.61
2022-10-26T06:45:26.387Z,150.94
2022-10-26T07:00:26.613Z,157.44
2022-10-26T07:15:26.347Z,156.04
2022-10-26T07:30:26.458Z,155.54
2022-10-26T07:45:26.517Z,159.86
2022-10-26T08:00:26.655Z,170.14
2022-10-26T08:15:26.501Z,149.62
2022-10-26T08:30:26.545Z,161.90
2022-10-26T08:45:31.680Z,207.70
2022-10-26T09:00:26.571Z,173.92
2022-10-26T09:15:26.525Z,210.94
2022-10-26T09:30:26.526Z,216.15
2022-10-26T09:45:26.670Z,193.19
2022-10-26T10:00:26.745Z,196.03
2022-10-26T10:15:26.626Z,201.28
2022-10-26T10:30:26.617Z,212.06
2022-10-26T10:45:26.581Z,205.24
2022-10-26T11:00:26.660Z,202.78
2022-10-26T11:15:26.660Z,210.43
2022-10-26T11:30:26.712Z,198.94
2022-10-26T11:45:26.767Z,207.34
2022-10-26T12:00:26.945Z,221.54
2022-10-26T12:15:35.213Z,230.78
2022-10-26T12:30:26.915Z,224.43
2022-10-26T12:45:26.931Z,215.17
2022-10-26T13:00:27.048Z,226.80
2022-10-26T13:15:27.004Z,241.15
2022-10-26T13:30:27.045Z,227.79
2022-10-26T13:45:27.209Z,224.22
2022-10-26T14:00:27.010Z,217.84
2022-10-26T14:15:27.059Z,217.66
2022-10-26T14:30:26.974Z,220.02
2022-10-26T14:45:36.490Z,220.48
2022-10-26T15:00:27.024Z,228.90
2022-10-26T15:15:27.102Z,201.90
2022-10-26T15:30:27.225Z,204.37
2022-10-26T15:45:27.187Z,207.30
2022-10-26T16:00:27.080Z,184.88
2022-10-26T16:15:27.108Z,206.68
2022-10-26T16:30:30.441Z,201.51
2022-10-26T16:45:27.141Z,210.83
2022-10-26T17:00:27.404Z,210.66
2022-10-26T17:15:28.880Z,206.47
2022-10-26T17:30:29.412Z,221.08
2022-10-26T17:45:27.439Z,223.03
2022-10-26T18:00:27.574Z,199.97
2022-10-26T18:15:27.578Z,213.63
2022-10-26T18:30:27.614Z,192.55
2022-10-26T18:45:27.714Z,182.83
2022-10-26T19:00:27.741Z,172.25
2022-10-26T19:15:27.583Z,217.34
2022-10-26T19:30:27.770Z,225.00
2022-10-26T19:45:27.872Z,225.00
2022-10-26T20:00:27.682Z,225.00
2022-10-26T20:15:27.739Z,166.37
2022-10-26T20:30:27.791Z,155.36
2022-10-26T20:45:27.915Z,166.64
2022-10-26T21:00:27.991Z,133.30
2022-10-26T21:15:27.886Z,129.33
2022-10-26T21:30:29.001Z,126.44
2022-10-26T21:45:27.838Z,142.23
2022-10-26T22:00:28.018Z,121.16
2022-10-26T22:15:28.017Z,135.28
2022-10-26T22:30:27.812Z,137.89
2022-10-26T22:45:27.971Z,134.79
2022-10-26T23:00:27.959Z,136.09
2022-10-26T23:15:27.985Z,128.21
2022-10-26T23:30:28.024Z,136.33
2022-10-26T23:45:28.003Z,132.58
